Time;durP1;ratioP1;P1;durP2;ratioP2;P2;SDS_P1;SDS_P2;PMS_P1;PMS_P2;Temp;Humidity;BMP_temperature;BMP_pressure;BME280_temperature;BME280_humidity;BME280_pressure;Samples;Min_cycle;Max_cycle;Signal;HPM_P1;HPM_P2
2022/08/19 00:00:19;;;;;;;6.30;3.90;;;23.40;89.50;;;;;;5033932;28;20025;-78
2022/08/19 00:02:46;;;;;;;6.00;3.65;;;23.40;89.60;;;;;;5016500;28;20110;-79
2022/08/19 00:05:14;;;;;;;5.68;3.28;;;23.40;89.50;;;;;;5034482;28;20109;-78
2022/08/19 00:07:42;;;;;;;6.03;3.10;;;23.40;89.50;;;;;;5033848;28;20096;-78
2022/08/19 00:10:09;;;;;;;6.05;3.38;;;23.40;89.50;;;;;;5018309;28;20029;-78
2022/08/19 00:12:37;;;;;;;5.60;3.30;;;23.50;89.50;;;;;;5036653;28;20033;-79
2022/08/19 00:15:04;;;;;;;5.40;3.10;;;23.50;89.40;;;;;;5037501;28;20041;-78
2022/08/19 00:17:30;;;;;;;4.97;2.97;;;23.50;89.30;;;;;;5019444;28;20131;-78
2022/08/19 00:19:55;;;;;;;6.22;3.40;;;23.60;89.30;;;;;;5021448;28;20045;-78
2022/08/19 00:22:21;;;;;;;4.95;2.90;;;23.50;89.20;;;;;;5040133;28;20033;-78
2022/08/19 00:24:46;;;;;;;5.25;3.13;;;23.50;89.10;;;;;;5040627;28;20095;-78
2022/08/19 00:27:13;;;;;;;5.82;3.40;;;23.50;89.20;;;;;;5023118;28;20138;-78
2022/08/19 00:29:38;;;;;;;5.25;3.10;;;23.50;89.30;;;;;;5022623;28;20048;-79
2022/08/19 00:32:05;;;;;;;5.15;3.10;;;23.40;89.30;;;;;;5022283;28;20543;-79
2022/08/19 00:34:30;;;;;;;6.22;3.40;;;23.40;89.40;;;;;;5021657;28;20475;-78
2022/08/19 00:36:56;;;;;;;6.90;3.63;;;23.40;89.40;;;;;;5021976;28;20036;-78
2022/08/19 00:39:23;;;;;;;4.70;3.03;;;23.40;89.50;;;;;;5021968;28;20545;-78
2022/08/19 00:41:49;;;;;;;5.88;3.30;;;23.40;89.50;;;;;;5022028;28;20029;-78
2022/08/19 00:44:21;;;;;;;4.95;3.08;;;23.40;89.50;;;;;;5021130;28;20033;-79
2022/08/19 00:46:49;;;;;;;5.32;3.10;;;23.40;89.60;;;;;;5021267;28;20506;-79
2022/08/19 00:49:19;;;;;;;5.90;3.10;;;23.40;89.60;;;;;;5021244;28;20044;-78
2022/08/19 00:51:48;;;;;;;5.15;3.10;;;23.40;89.50;;;;;;5021222;28;20037;-78
2022/08/19 00:54:14;;;;;;;5.75;3.13;;;23.40;89.50;;;;;;5021025;28;20093;-79
2022/08/19 00:56:40;;;;;;;4.85;2.92;;;23.40;89.50;;;;;;5020621;28;20452;-78
2022/08/19 00:59:08;;;;;;;5.38;3.00;;;23.50;89.40;;;;;;5019954;28;20049;-78
2022/08/19 01:01:40;;;;;;;5.32;3.20;;;23.50;89.30;;;;;;5020458;28;20029;-79
2022/08/19 01:04:06;;;;;;;5.28;2.90;;;23.50;89.20;;;;;;5020075;28;20030;-78
2022/08/19 01:06:33;;;;;;;5.45;3.22;;;23.50;89.10;;;;;;5020144;28;20029;-78
2022/08/19 01:08:59;;;;;;;5.78;3.42;;;23.40;89.10;;;;;;5037236;28;20033;-78
2022/08/19 01:11:27;;;;;;;5.28;3.13;;;23.40;89.10;;;;;;5035368;28;20175;-75
2022/08/19 01:13:53;;;;;;;4.90;2.92;;;23.40;89.20;;;;;;5035991;28;20112;-78
2022/08/19 01:16:21;;;;;;;5.15;3.25;;;23.40;89.30;;;;;;5019999;28;20104;-78
2022/08/19 01:18:47;;;;;;;5.75;3.53;;;23.40;89.30;;;;;;5019107;28;20025;-78
2022/08/19 01:21:32;;;;;;;5.45;3.20;;;23.40;89.40;;;;;;5018968;28;20071;-78
2022/08/19 01:23:57;;;;;;;5.25;2.97;;;23.40;89.50;;;;;;5019499;28;20022;-78
2022/08/19 01:26:25;;;;;;;6.22;3.50;;;23.40;89.50;;;;;;5019436;28;20155;-78
2022/08/19 01:28:54;;;;;;;5.03;3.22;;;23.30;89.50;;;;;;5019232;28;20033;-77
2022/08/19 01:31:23;;;;;;;6.88;3.10;;;23.40;89.60;;;;;;5019702;28;20608;-79
2022/08/19 01:33:51;;;;;;;6.43;3.22;;;23.30;89.50;;;;;;5022920;28;20442;-78
2022/08/19 01:36:51;;;;;;;4.75;3.00;;;23.30;89.50;;;;;;5039754;28;20025;-78
2022/08/19 01:39:21;;;;;;;5.85;2.88;;;23.40;89.50;;;;;;5018306;28;20128;-78
2022/08/19 01:41:47;;;;;;;4.88;3.00;;;23.40;89.50;;;;;;5022127;28;20124;-79
2022/08/19 01:44:14;;;;;;;4.93;2.85;;;23.40;89.40;;;;;;5022946;28;20056;-79
2022/08/19 01:46:39;;;;;;;4.85;3.10;;;23.40;89.30;;;;;;5021244;28;20026;-79
2022/08/19 01:49:07;;;;;;;6.03;3.40;;;23.40;89.20;;;;;;5039306;28;20134;-78
2022/08/19 01:51:33;;;;;;;5.25;2.80;;;23.40;89.10;;;;;;5021157;28;20025;-78
2022/08/19 01:53:59;;;;;;;5.07;3.00;;;23.40;89.20;;;;;;5021076;28;20029;-78
2022/08/19 01:56:25;;;;;;;4.93;3.03;;;23.40;89.20;;;;;;5038253;28;20095;-78
2022/08/19 01:58:59;;;;;;;5.40;3.45;;;23.40;89.30;;;;;;5020369;28;20451;-78
2022/08/19 02:01:25;;;;;;;4.72;3.10;;;23.30;89.30;;;;;;5020190;28;20061;-79
2022/08/19 02:03:51;;;;;;;4.55;3.00;;;23.40;89.40;;;;;;5020154;28;20428;-78
2022/08/19 02:06:17;;;;;;;4.85;3.00;;;23.30;89.40;;;;;;5038270;28;20480;-78
2022/08/19 02:08:45;;;;;;;5.15;3.05;;;23.30;89.40;;;;;;5019735;28;20025;-78
2022/08/19 02:11:20;;;;;;;4.70;2.92;;;23.30;89.50;;;;;;5018251;28;20052;-78
2022/08/19 02:13:46;;;;;;;4.53;2.83;;;23.30;90.00;;;;;;5037211;28;20036;-78
2022/08/19 02:16:12;;;;;;;5.07;3.10;;;23.30;89.60;;;;;;5018896;28;20021;-78
2022/08/19 02:18:37;;;;;;;3.90;2.60;;;23.30;89.60;;;;;;5018919;28;20025;-78
2022/08/19 02:21:03;;;;;;;4.78;2.70;;;23.30;89.50;;;;;;5036602;28;20021;-78
2022/08/19 02:23:28;;;;;;;4.82;2.97;;;23.30;89.50;;;;;;5019377;28;20032;-78
2022/08/19 02:25:54;;;;;;;4.88;2.92;;;23.30;89.50;;;;;;5036826;28;20450;-78
2022/08/19 02:28:19;;;;;;;5.25;3.15;;;23.40;89.40;;;;;;5037018;28;20053;-79
2022/08/19 02:30:46;;;;;;;4.32;2.83;;;23.40;89.30;;;;;;5017807;28;20029;-78
2022/08/19 02:33:12;;;;;;;5.07;3.03;;;23.50;89.20;;;;;;5018622;28;20040;-78
2022/08/19 02:35:45;;;;;;;4.65;3.00;;;23.40;89.10;;;;;;5018125;28;20021;-78
2022/08/19 02:38:25;;;;;;;4.45;2.65;;;23.40;89.10;;;;;;5031060;28;20037;-78
2022/08/19 02:40:54;;;;;;;4.85;2.58;;;23.40;89.20;;;;;;5034092;28;20021;-78
2022/08/19 02:43:20;;;;;;;5.55;3.10;;;23.40;89.20;;;;;;5034985;28;20128;-78
2022/08/19 02:45:48;;;;;;;4.47;2.90;;;23.30;89.20;;;;;;5034303;28;20116;-78
2022/08/19 02:48:18;;;;;;;4.78;3.28;;;23.30;89.30;;;;;;5034504;28;20022;-78
2022/08/19 02:50:44;;;;;;;4.70;2.93;;;23.30;89.40;;;;;;5034247;28;20032;-78
2022/08/19 02:53:11;;;;;;;4.95;3.00;;;23.30;89.40;;;;;;5034238;28;20659;-78
2022/08/19 02:55:43;;;;;;;4.85;3.08;;;23.30;89.40;;;;;;5035453;28;20021;-78
2022/08/19 02:58:09;;;;;;;4.40;2.92;;;23.30;89.50;;;;;;5035240;28;20385;-78
2022/08/19 03:00:34;;;;;;;5.55;2.88;;;23.30;89.50;;;;;;5033369;28;20022;-78
2022/08/19 03:03:00;;;;;;;4.47;2.70;;;23.30;89.60;;;;;;5034781;28;20036;-79
2022/08/19 03:05:26;;;;;;;4.63;2.83;;;23.30;89.60;;;;;;5034595;28;20112;-79
2022/08/19 03:07:52;;;;;;;4.65;2.78;;;23.30;89.50;;;;;;5034732;28;20029;-79
2022/08/19 03:10:18;;;;;;;5.03;3.10;;;23.30;89.50;;;;;;5034255;28;20550;-79
2022/08/19 03:12:44;;;;;;;4.82;3.08;;;23.30;89.40;;;;;;5035405;28;20052;-80
2022/08/19 03:15:10;;;;;;;5.10;2.90;;;23.30;89.30;;;;;;5034169;28;20021;-79
2022/08/19 03:17:35;;;;;;;6.13;3.13;;;23.30;89.20;;;;;;5034263;28;20032;-79
2022/08/19 03:20:01;;;;;;;6.25;3.05;;;23.30;89.20;;;;;;5035223;28;20044;-79
2022/08/19 03:22:27;;;;;;;5.30;3.00;;;23.40;89.20;;;;;;5034131;28;20112;-80
2022/08/19 03:24:53;;;;;;;4.75;2.83;;;23.40;89.20;;;;;;5033712;28;20396;-81
2022/08/19 03:27:19;;;;;;;4.93;2.95;;;23.30;89.20;;;;;;5033675;28;20032;-79
2022/08/19 03:29:44;;;;;;;4.72;3.03;;;23.30;89.70;;;;;;5033766;28;20552;-81
2022/08/19 03:32:11;;;;;;;4.82;3.17;;;23.30;89.30;;;;;;5036900;28;20060;-80
2022/08/19 03:34:37;;;;;;;4.30;2.75;;;23.30;89.40;;;;;;5037049;28;20017;-82
2022/08/19 03:37:06;;;;;;;4.50;2.83;;;23.30;89.50;;;;;;5037259;28;20031;-80
2022/08/19 03:39:31;;;;;;;4.45;3.10;;;23.30;90.00;;;;;;5036193;28;20072;-83
2022/08/19 03:41:59;;;;;;;4.80;3.00;;;23.30;89.50;;;;;;5037103;28;20025;-80
2022/08/19 03:44:25;;;;;;;5.22;3.10;;;23.20;89.60;;;;;;5036522;28;20035;-81
2022/08/19 03:46:53;;;;;;;6.03;2.88;;;23.30;89.60;;;;;;5036494;28;20125;-80
2022/08/19 03:49:21;;;;;;;4.30;2.80;;;23.30;89.70;;;;;;5035847;28;20643;-80
2022/08/19 03:51:48;;;;;;;4.72;2.97;;;23.30;89.60;;;;;;5035818;28;20087;-79
2022/08/19 03:54:16;;;;;;;4.65;2.88;;;23.30;89.60;;;;;;5037519;28;20056;-81
2022/08/19 03:56:43;;;;;;;4.75;2.85;;;23.30;89.50;;;;;;5035088;28;20029;-79
2022/08/19 03:59:13;;;;;;;4.55;2.90;;;23.30;89.40;;;;;;5036395;28;20026;-80
2022/08/19 04:01:39;;;;;;;5.18;2.60;;;23.30;89.30;;;;;;5032913;28;20083;-81
2022/08/19 04:04:04;;;;;;;4.22;2.75;;;23.30;89.20;;;;;;5032670;28;20104;-80
2022/08/19 04:06:32;;;;;;;4.72;2.80;;;23.30;89.20;;;;;;5036131;28;20041;-79
2022/08/19 04:09:01;;;;;;;4.30;2.53;;;23.30;89.20;;;;;;5036028;28;20037;-78
2022/08/19 04:11:29;;;;;;;4.78;2.83;;;23.30;89.20;;;;;;5034711;28;20108;-80
2022/08/19 04:13:55;;;;;;;5.00;3.20;;;23.30;89.20;;;;;;5018248;28;20489;-80
2022/08/19 04:16:23;;;;;;;4.70;2.97;;;23.30;89.30;;;;;;5017764;28;20022;-80
2022/08/19 04:18:49;;;;;;;4.70;2.90;;;23.20;89.30;;;;;;5017738;28;20033;-78
2022/08/19 04:47:05;;;;;;;4.40;2.72;;;23.30;89.30;;;;;;5049257;28;20048;-77
2022/08/19 04:49:31;;;;;;;4.72;2.90;;;23.30;89.20;;;;;;5033212;28;20025;-78
2022/08/19 04:51:56;;;;;;;14.45;4.63;;;23.30;89.20;;;;;;5030622;28;20033;-79
2022/08/19 04:54:24;;;;;;;4.38;2.83;;;23.30;88.40;;;;;;5054173;28;20021;-79
2022/08/19 04:56:52;;;;;;;6.38;2.78;;;23.30;89.10;;;;;;5035097;28;20036;-79
2022/08/19 05:02:37;;;;;;;;;;;;;;;;;;;;;
2022/08/19 05:09:04;;;;;;;10.55;3.22;;;23.20;89.00;;;;;;4955858;28;20029;-77
2022/08/19 05:14:54;;;;;;;7.22;3.50;;;23.20;89.00;;;;;;5035924;28;20715;-78
2022/08/19 05:31:14;;;;;;;7.70;3.17;;;23.30;88.80;;;;;;4973464;28;20042;-79
2022/08/19 05:44:09;;;;;;;6.75;3.58;;;23.30;88.70;;;;;;4993632;28;20032;-79
2022/08/19 05:46:37;;;;;;;7.03;3.60;;;23.20;88.60;;;;;;5020461;28;20029;-77
2022/08/19 05:49:05;;;;;;;8.63;3.60;;;23.70;89.00;;;;;;5033646;28;20021;-77
2022/08/19 05:51:32;;;;;;;6.80;3.30;;;23.20;88.80;;;;;;5034891;28;20072;-79
2022/08/19 05:53:57;;;;;;;7.80;3.55;;;23.20;88.80;;;;;;5034098;28;20075;-79
2022/08/19 05:56:23;;;;;;;6.55;3.25;;;23.20;88.90;;;;;;5035092;28;20030;-79
2022/08/19 05:58:49;;;;;;;8.20;3.65;;;23.20;88.90;;;;;;5033628;28;20056;-79
2022/08/19 06:01:17;;;;;;;8.02;3.58;;;23.20;88.80;;;;;;5034739;28;20030;-78
2022/08/19 06:03:44;;;;;;;7.25;3.60;;;23.20;88.70;;;;;;5035258;28;20052;-78
2022/08/19 06:06:11;;;;;;;6.65;3.55;;;23.20;88.70;;;;;;5033934;28;20021;-79
2022/08/19 06:08:38;;;;;;;6.57;3.15;;;23.30;88.70;;;;;;5033544;28;20029;-78
2022/08/19 06:11:34;;;;;;;8.18;3.60;;;23.20;88.60;;;;;;5034637;28;20044;-78
2022/08/19 06:14:07;;;;;;;5.60;3.42;;;23.30;88.50;;;;;;5034693;28;20095;-79
2022/08/19 06:16:35;;;;;;;6.85;3.30;;;23.30;88.40;;;;;;5033630;28;20025;-78
2022/08/19 06:19:07;;;;;;;6.78;3.30;;;23.30;88.30;;;;;;5033183;28;20033;-79
2022/08/19 06:21:35;;;;;;;6.72;3.10;;;23.30;88.30;;;;;;5033658;28;20029;-79
2022/08/19 06:24:02;;;;;;;9.05;3.90;;;23.30;88.20;;;;;;5033395;28;20377;-79
2022/08/19 06:26:28;;;;;;;6.32;3.53;;;23.30;88.30;;;;;;5034528;28;20864;-78
2022/08/19 06:28:54;;;;;;;6.97;3.80;;;23.30;88.30;;;;;;5034427;28;20033;-79
2022/08/19 06:31:23;;;;;;;6.90;3.42;;;23.30;88.30;;;;;;5034363;28;20029;-79
2022/08/19 06:33:49;;;;;;;6.80;3.35;;;23.40;88.30;;;;;;5034341;28;20021;-79
2022/08/19 06:36:31;;;;;;;6.20;3.60;;;23.30;88.10;;;;;;5034461;28;20377;-79
2022/08/19 06:38:57;;;;;;;8.13;3.30;;;23.40;88.20;;;;;;5032996;28;20155;-79
2022/08/19 06:41:24;;;;;;;6.40;3.50;;;23.40;87.90;;;;;;5032961;28;20072;-79
2022/08/19 06:43:50;;;;;;;6.75;3.30;;;23.40;87.90;;;;;;5033118;28;20075;-79
2022/08/19 06:46:18;;;;;;;7.00;3.38;;;23.40;87.90;;;;;;5026873;28;20033;-78
2022/08/19 06:48:44;;;;;;;6.00;3.30;;;23.40;87.70;;;;;;5016715;28;20377;-81
2022/08/19 06:51:10;;;;;;;5.53;3.15;;;23.50;87.60;;;;;;5015993;28;20025;-78
2022/08/19 06:53:35;;;;;;;7.00;3.28;;;23.50;87.50;;;;;;5015973;28;20022;-78
2022/08/19 06:56:01;;;;;;;5.65;3.10;;;23.60;87.30;;;;;;5016153;28;20026;-78
2022/08/19 06:58:33;;;;;;;5.88;3.40;;;23.60;87.00;;;;;;5015865;28;20108;-79
2022/08/19 07:01:00;;;;;;;;;;;23.60;86.80;;;;;;5033642;28;20051;-77
2022/08/19 07:03:29;;;;;;;7.35;3.70;;;23.70;86.60;;;;;;5034073;28;19905;-79
2022/08/19 07:05:54;;;;;;;5.40;3.05;;;23.70;86.50;;;;;;5016446;28;20051;-80
2022/08/19 07:08:19;;;;;;;4.72;2.88;;;23.70;86.50;;;;;;5017597;28;20033;-78
2022/08/19 07:10:45;;;;;;;4.75;2.80;;;23.70;86.40;;;;;;5033685;28;20029;-79
2022/08/19 07:13:11;;;;;;;7.32;3.20;;;23.80;86.50;;;;;;5033304;28;20030;-78
2022/08/19 07:15:37;;;;;;;6.43;3.13;;;23.70;86.50;;;;;;5016709;28;20026;-79
2022/08/19 07:18:04;;;;;;;6.72;3.08;;;23.70;86.40;;;;;;5017180;28;20049;-79
2022/08/19 07:20:30;;;;;;;5.70;3.15;;;23.80;86.30;;;;;;5015258;28;20036;-79
2022/08/19 07:22:55;;;;;;;5.32;3.10;;;23.80;86.30;;;;;;5015117;28;20029;-77
2022/08/19 07:25:21;;;;;;;6.10;2.90;;;23.80;86.20;;;;;;5015470;28;20080;-78
2022/08/19 07:27:49;;;;;;;5.43;3.10;;;23.80;86.10;;;;;;5032638;28;20025;-79
2022/08/19 07:30:14;;;;;;;4.88;2.88;;;23.80;86.10;;;;;;5032869;28;20100;-79
2022/08/19 07:32:40;;;;;;;5.95;3.08;;;23.80;86.10;;;;;;5015415;28;20033;-77
2022/08/19 07:35:07;;;;;;;5.80;3.20;;;23.80;86.10;;;;;;5015662;28;20382;-79
2022/08/19 07:37:34;;;;;;;6.43;3.17;;;23.90;86.10;;;;;;5015670;28;20029;-79
2022/08/19 07:40:01;;;;;;;5.60;3.03;;;23.90;85.90;;;;;;5015715;28;20032;-80
2022/08/19 07:42:29;;;;;;;6.07;3.45;;;24.10;85.60;;;;;;5035463;28;20040;-79
2022/08/19 07:44:54;;;;;;;5.97;3.22;;;24.00;85.40;;;;;;5036401;28;20072;-79
2022/08/19 07:47:20;;;;;;;6.18;3.38;;;24.10;85.50;;;;;;5036184;28;20037;-79
2022/08/19 07:49:46;;;;;;;5.88;3.53;;;24.10;85.00;;;;;;5018184;28;20025;-79
2022/08/19 07:52:12;;;;;;;6.32;3.28;;;24.10;85.00;;;;;;5018466;28;20022;-79
2022/08/19 07:54:39;;;;;;;5.30;3.28;;;24.10;84.70;;;;;;5008242;28;20366;-77
2022/08/19 07:57:06;;;;;;;10.93;3.60;;;24.10;84.80;;;;;;5018561;28;20492;-79
2022/08/19 10:06:05;;;;;;;5.55;3.72;;;24.00;82.60;;;;;;4958872;29;20046;-79
2022/08/19 10:16:29;;;;;;;6.15;3.40;;;24.80;83.00;;;;;;4827346;29;20057;-81
2022/08/19 10:47:28;;;;;;;6.22;3.60;;;24.70;83.00;;;;;;4807165;29;20037;-80
2022/08/19 11:25:29;;;;;;;4.00;2.78;;;24.70;83.40;;;;;;4937965;29;20037;-82
2022/08/19 11:27:55;;;;;;;5.20;3.00;;;24.90;83.40;;;;;;4987586;28;20022;-81
2022/08/19 11:30:21;;;;;;;4.70;3.08;;;24.90;83.20;;;;;;5029459;28;20047;-81
2022/08/19 11:32:47;;;;;;;4.70;3.17;;;24.90;83.20;;;;;;5037150;28;20025;-83
2022/08/19 11:35:13;;;;;;;5.03;3.30;;;25.00;83.10;;;;;;5055058;28;20020;-81
2022/08/19 11:37:39;;;;;;;4.53;2.90;;;25.00;83.00;;;;;;5049424;28;20013;-81
2022/08/19 11:40:06;;;;;;;4.57;3.13;;;24.90;83.00;;;;;;5029670;28;20416;-81
2022/08/19 11:45:15;;;;;;;4.18;2.83;;;24.80;83.20;;;;;;5044798;28;20050;-79
2022/08/19 11:47:41;;;;;;;4.93;3.00;;;24.80;83.30;;;;;;5039280;28;20025;-80
2022/08/19 11:50:07;;;;;;;4.80;3.05;;;24.80;83.50;;;;;;5028630;28;20533;-81
2022/08/19 11:52:32;;;;;;;5.13;3.17;;;24.80;83.60;;;;;;5018211;28;20036;-80
2022/08/19 11:54:58;;;;;;;4.63;3.30;;;24.80;83.60;;;;;;5031264;28;20026;-81
2022/08/19 11:57:23;;;;;;;4.95;3.10;;;24.80;83.70;;;;;;5023115;28;20408;-80
2022/08/19 11:59:52;;;;;;;4.18;2.90;;;24.80;83.70;;;;;;5025246;28;20028;-80
2022/08/19 12:02:18;;;;;;;4.97;3.10;;;24.80;83.80;;;;;;5035126;28;20108;-81
2022/08/19 12:04:44;;;;;;;4.97;2.80;;;24.80;83.80;;;;;;5017333;28;20484;-80
2022/08/19 12:07:10;;;;;;;5.38;3.08;;;24.80;83.60;;;;;;5016956;28;20045;-77
2022/08/19 12:09:35;;;;;;;5.30;2.97;;;24.80;83.50;;;;;;5034628;28;20081;-79
2022/08/19 12:12:02;;;;;;;5.55;3.08;;;24.80;83.30;;;;;;5014270;28;20045;-77
2022/08/19 12:14:29;;;;;;;5.07;3.00;;;24.80;83.20;;;;;;5018789;28;20537;-80
2022/08/19 12:16:55;;;;;;;4.85;3.03;;;24.80;83.10;;;;;;5023833;28;20021;-79
2022/08/19 12:19:20;;;;;;;6.40;2.88;;;24.80;83.00;;;;;;5023450;28;20024;-80
2022/08/19 12:21:46;;;;;;;5.53;3.00;;;24.80;83.10;;;;;;5023567;28;20449;-81
2022/08/19 12:24:12;;;;;;;4.93;2.92;;;24.80;83.10;;;;;;5023084;28;20492;-80
2022/08/19 12:26:37;;;;;;;5.57;3.45;;;24.80;83.20;;;;;;5042414;28;20104;-82
2022/08/19 12:29:03;;;;;;;5.47;3.10;;;24.70;83.30;;;;;;5041502;28;20026;-83
2022/08/19 12:31:29;;;;;;;4.03;2.60;;;24.80;83.50;;;;;;5024140;28;20024;-83
2022/08/19 12:33:55;;;;;;;4.95;3.00;;;24.70;83.60;;;;;;5042978;28;20101;-83
2022/08/19 12:36:22;;;;;;;3.88;2.70;;;24.70;83.70;;;;;;5024872;28;20025;-82
2022/08/19 12:38:48;;;;;;;4.03;2.65;;;24.70;83.90;;;;;;5042382;28;20029;-82
2022/08/19 12:41:17;;;;;;;5.40;3.15;;;24.60;83.90;;;;;;5025095;28;20112;-83
2022/08/19 12:43:42;;;;;;;5.40;2.90;;;24.60;84.00;;;;;;5024603;28;20072;-81
2022/08/19 12:46:09;;;;;;;7.57;3.10;;;24.60;84.10;;;;;;5043127;28;20052;-82
2022/08/19 12:48:35;;;;;;;6.55;3.22;;;24.60;83.20;;;;;;5024624;28;20025;-79
2022/08/19 12:51:06;;;;;;;6.07;3.17;;;24.60;83.10;;;;;;5022223;28;20025;-78
2022/08/19 12:53:32;;;;;;;5.57;2.90;;;24.60;83.10;;;;;;5041809;28;20052;-79
2022/08/19 12:56:00;;;;;;;5.63;2.95;;;24.60;83.10;;;;;;5042670;28;20033;-80
2022/08/19 12:58:27;;;;;;;5.93;2.88;;;24.60;83.10;;;;;;5042331;28;20018;-81
2022/08/19 13:00:53;;;;;;;6.32;3.30;;;24.60;83.10;;;;;;5041849;28;20029;-81
2022/08/19 13:03:18;;;;;;;6.72;3.13;;;24.60;83.00;;;;;;5042158;28;20034;-80
2022/08/19 13:05:44;;;;;;;7.40;3.05;;;24.60;83.10;;;;;;5021838;28;20029;-81
2022/08/19 13:08:11;;;;;;;7.80;3.20;;;24.60;83.10;;;;;;5021546;28;20030;-79
2022/08/19 13:10:36;;;;;;;6.03;3.17;;;24.60;83.20;;;;;;5022988;28;20025;-79
2022/08/19 13:13:06;;;;;;;7.03;2.70;;;24.60;83.30;;;;;;5024852;28;20515;-81
2022/08/19 13:15:34;;;;;;;6.97;2.83;;;24.60;83.50;;;;;;5025555;28;20021;-81
2022/08/19 13:18:00;;;;;;;4.38;2.83;;;24.50;83.60;;;;;;5025217;28;20025;-81
2022/08/19 13:20:26;;;;;;;6.38;2.92;;;24.50;83.70;;;;;;5043371;28;20392;-81
2022/08/19 13:22:52;;;;;;;5.60;3.10;;;24.50;83.80;;;;;;5025650;28;20121;-81
2022/08/19 13:25:19;;;;;;;5.05;2.85;;;24.40;83.90;;;;;;5024087;28;20061;-81
2022/08/19 13:27:45;;;;;;;6.05;2.88;;;24.40;84.10;;;;;;5038905;28;20053;-81
2022/08/19 13:33:11;;;;;;;6.95;3.13;;;24.40;84.30;;;;;;5040021;28;20031;-81
2022/08/19 13:35:39;;;;;;;5.15;3.15;;;24.30;84.30;;;;;;5039037;28;20091;-81
2022/08/19 13:38:04;;;;;;;4.80;2.78;;;24.30;84.50;;;;;;5021716;28;20048;-82
2022/08/19 13:40:33;;;;;;;7.35;3.38;;;24.30;84.50;;;;;;5023132;28;20032;-82
2022/08/19 13:43:00;;;;;;;5.32;3.00;;;24.40;84.60;;;;;;5022189;28;20021;-81
2022/08/19 13:45:27;;;;;;;5.68;3.10;;;24.40;85.00;;;;;;5022572;28;20575;-81
2022/08/19 13:47:55;;;;;;;4.45;2.90;;;24.40;84.50;;;;;;5039692;28;20036;-82
2022/08/19 13:50:25;;;;;;;4.35;2.80;;;24.40;84.40;;;;;;5021468;28;20026;-81
2022/08/19 13:52:51;;;;;;;6.47;3.00;;;24.40;84.40;;;;;;5021287;28;20060;-81
2022/08/19 13:55:16;;;;;;;6.40;2.92;;;24.40;84.30;;;;;;5021324;28;20400;-82
2022/08/19 13:57:42;;;;;;;4.30;2.70;;;24.40;84.40;;;;;;5020706;28;20025;-81
2022/08/19 14:00:11;;;;;;;4.63;2.85;;;24.40;84.50;;;;;;5020380;28;20052;-81
2022/08/19 14:02:38;;;;;;;6.25;3.00;;;24.30;84.60;;;;;;5038329;28;20033;-81
2022/08/19 14:05:07;;;;;;;5.82;3.35;;;24.30;84.70;;;;;;5038197;28;20644;-81
2022/08/19 14:07:32;;;;;;;5.00;2.95;;;24.30;84.80;;;;;;5037904;28;20047;-81
2022/08/19 14:09:58;;;;;;;5.57;2.92;;;24.30;84.90;;;;;;5019329;28;20512;-81
2022/08/19 14:12:23;;;;;;;5.53;3.08;;;24.20;84.90;;;;;;5019809;28;20049;-81
2022/08/19 14:14:49;;;;;;;5.82;3.00;;;24.30;85.00;;;;;;5019695;28;20028;-80
2022/08/19 14:17:15;;;;;;;4.18;2.80;;;24.20;85.10;;;;;;5019333;28;20568;-81
2022/08/19 14:19:41;;;;;;;4.45;2.67;;;24.20;85.20;;;;;;5018872;28;20432;-81
2022/08/19 14:22:07;;;;;;;4.93;2.83;;;24.20;85.30;;;;;;5019224;28;20492;-81
2022/08/19 14:24:33;;;;;;;4.85;2.83;;;24.10;85.30;;;;;;5037065;28;20034;-81
2022/08/19 14:26:59;;;;;;;5.70;2.90;;;24.20;85.30;;;;;;5037403;28;20025;-81
2022/08/19 14:29:25;;;;;;;5.63;3.30;;;24.20;85.30;;;;;;5038971;28;20083;-82
2022/08/19 14:31:50;;;;;;;4.18;2.70;;;24.20;85.20;;;;;;5021507;28;20027;-82
2022/08/19 14:34:16;;;;;;;6.78;2.67;;;24.20;85.10;;;;;;5038620;28;20029;-82
2022/08/19 14:36:42;;;;;;;5.00;2.90;;;24.30;85.10;;;;;;5021297;28;20076;-82
2022/08/19 14:39:09;;;;;;;4.55;2.58;;;24.20;85.00;;;;;;5019325;28;20084;-81
2022/08/19 14:41:35;;;;;;;5.13;3.00;;;24.20;85.00;;;;;;5020768;28;20033;-81
2022/08/19 14:44:01;;;;;;;4.60;2.80;;;24.20;85.10;;;;;;5021363;28;20436;-82
2022/08/19 14:46:28;;;;;;;4.85;2.90;;;24.20;85.10;;;;;;5038345;28;20025;-82
2022/08/19 14:48:55;;;;;;;5.28;3.00;;;24.20;85.20;;;;;;5020174;28;20078;-77
2022/08/19 14:51:23;;;;;;;4.25;2.70;;;24.10;85.30;;;;;;5037918;28;20018;-81
2022/08/19 14:53:48;;;;;;;4.75;2.85;;;24.10;85.50;;;;;;5038371;28;20500;-81
2022/08/19 14:56:17;;;;;;;4.10;2.65;;;24.10;85.50;;;;;;5037694;28;20053;-81
2022/08/19 14:58:43;;;;;;;4.57;3.00;;;24.10;85.70;;;;;;5019073;28;20025;-81
2022/08/19 15:01:10;;;;;;;4.70;2.60;;;24.10;85.70;;;;;;5018754;28;20021;-81
2022/08/19 15:03:36;;;;;;;4.10;2.70;;;24.10;86.30;;;;;;5018937;28;20026;-81
2022/08/19 15:06:03;;;;;;;3.63;2.53;;;24.10;85.80;;;;;;5036537;28;20099;-81
2022/08/19 15:08:31;;;;;;;4.18;2.60;;;24.00;85.80;;;;;;5018679;28;20033;-81
2022/08/19 15:10:59;;;;;;;4.82;2.70;;;24.10;85.90;;;;;;5018345;28;20025;-80
2022/08/19 15:13:26;;;;;;;3.88;2.70;;;24.10;85.80;;;;;;5036283;28;20049;-81
2022/08/19 15:15:53;;;;;;;4.80;2.67;;;24.10;85.80;;;;;;5037115;28;20036;-81
2022/08/19 15:18:20;;;;;;;5.70;2.80;;;24.10;85.70;;;;;;5018364;28;20064;-81
2022/08/19 15:20:47;;;;;;;4.68;3.08;;;24.10;85.60;;;;;;5035378;28;20021;-81
2022/08/19 15:23:16;;;;;;;3.58;2.45;;;24.10;85.50;;;;;;5017396;28;20033;-81
2022/08/19 15:25:43;;;;;;;3.97;2.70;;;24.10;85.50;;;;;;5017636;28;20032;-81
2022/08/19 15:28:12;;;;;;;5.65;2.85;;;24.10;85.50;;;;;;5017688;28;20025;-81
2022/08/19 15:30:39;;;;;;;3.78;2.63;;;24.10;85.60;;;;;;5035222;28;20125;-81
2022/08/19 15:33:05;;;;;;;3.88;2.50;;;24.10;85.70;;;;;;5035635;28;20057;-81
2022/08/19 15:35:31;;;;;;;3.97;2.58;;;24.10;85.70;;;;;;5017200;28;20027;-81
2022/08/19 15:37:57;;;;;;;5.80;2.92;;;24.00;85.80;;;;;;5035374;28;20100;-81
2022/08/19 15:40:25;;;;;;;4.90;2.78;;;24.10;85.90;;;;;;5016905;28;20052;-80
2022/08/19 15:42:50;;;;;;;4.75;2.83;;;24.00;85.90;;;;;;5019293;28;20119;-81
2022/08/19 15:45:18;;;;;;;4.50;2.50;;;24.00;86.00;;;;;;5038419;28;20477;-81
2022/08/19 15:47:44;;;;;;;4.57;2.78;;;24.00;86.10;;;;;;5037725;28;20084;-81
2022/08/19 15:50:13;;;;;;;4.15;2.88;;;24.00;86.20;;;;;;5019634;28;20021;-81
2022/08/19 15:52:49;;;;;;;5.45;2.78;;;24.00;86.10;;;;;;5019676;28;20021;-81
2022/08/19 15:55:20;;;;;;;4.35;2.75;;;24.00;86.30;;;;;;5037263;28;20112;-81
2022/08/19 16:08:43;;;;;;;3.92;2.45;;;24.00;86.10;;;;;;5036131;28;20448;-81
2022/08/19 16:11:11;;;;;;;4.68;2.75;;;24.00;86.10;;;;;;5017512;28;20029;-81
2022/08/19 16:13:38;;;;;;;4.65;2.50;;;24.00;86.10;;;;;;5017677;28;20091;-81
2022/08/19 16:16:04;;;;;;;4.57;2.80;;;24.00;86.20;;;;;;5036044;28;20013;-81
2022/08/19 16:18:30;;;;;;;4.88;2.60;;;24.00;86.20;;;;;;5037604;28;20053;-81
2022/08/19 16:20:55;;;;;;;4.05;2.60;;;23.90;86.30;;;;;;5037219;28;20028;-82
2022/08/19 16:23:21;;;;;;;4.32;2.75;;;23.90;86.40;;;;;;5019264;28;20034;-81
2022/08/19 16:25:46;;;;;;;4.55;2.60;;;23.90;86.40;;;;;;5037448;28;20107;-81
2022/08/19 16:28:12;;;;;;;4.70;2.70;;;23.90;86.50;;;;;;5037382;28;20034;-82
2022/08/19 16:30:39;;;;;;;4.35;2.78;;;23.90;86.50;;;;;;5015683;28;20029;-81
2022/08/19 16:33:06;;;;;;;3.63;2.45;;;23.90;86.60;;;;;;5017791;28;20493;-81
2022/08/19 16:35:31;;;;;;;4.55;2.72;;;23.80;86.60;;;;;;5019138;28;20032;-80
2022/08/19 16:37:57;;;;;;;4.80;2.80;;;23.80;86.60;;;;;;5037759;28;20104;-81
2022/08/19 16:40:22;;;;;;;3.90;2.60;;;23.80;86.80;;;;;;5021611;28;20497;-80
2022/08/19 16:42:48;;;;;;;4.30;2.60;;;23.80;87.20;;;;;;5027468;28;20079;-81
2022/08/19 16:45:13;;;;;;;3.70;2.50;;;23.80;87.20;;;;;;5018252;28;20059;-80
2022/08/19 16:47:39;;;;;;;3.53;2.45;;;23.90;86.70;;;;;;5017810;28;20037;-80
2022/08/19 16:50:06;;;;;;;4.30;2.40;;;23.90;86.70;;;;;;5016535;28;20080;-80
2022/08/19 16:52:33;;;;;;;3.70;2.60;;;23.90;86.60;;;;;;5017557;28;20025;-80
2022/08/19 16:54:59;;;;;;;4.45;2.67;;;23.90;86.50;;;;;;5035239;28;20018;-80
2022/08/19 16:57:25;;;;;;;3.50;2.50;;;23.90;86.50;;;;;;5015312;28;20126;-81
2022/08/19 16:59:51;;;;;;;4.30;2.80;;;23.90;86.50;;;;;;5016078;28;20458;-80
2022/08/19 17:02:18;;;;;;;3.60;2.45;;;23.90;86.60;;;;;;5017670;28;20029;-82
2022/08/19 17:04:44;;;;;;;4.53;2.50;;;23.80;86.70;;;;;;5014882;28;20025;-80
2022/08/19 17:07:09;;;;;;;3.50;2.50;;;23.80;86.70;;;;;;5037577;28;20479;-79
2022/08/19 17:09:35;;;;;;;5.50;2.65;;;23.80;86.80;;;;;;5031149;28;20025;-79
2022/08/19 17:12:01;;;;;;;4.60;2.75;;;23.80;86.90;;;;;;5016155;28;20033;-80
2022/08/19 17:14:26;;;;;;;3.45;2.40;;;23.80;87.00;;;;;;5032517;28;20030;-79
2022/08/19 17:16:52;;;;;;;3.38;2.55;;;23.80;87.00;;;;;;5033967;28;20112;-78
2022/08/19 17:19:18;;;;;;;4.85;2.90;;;23.80;87.00;;;;;;5033675;28;20037;-79
2022/08/19 17:21:43;;;;;;;3.45;2.50;;;23.80;87.10;;;;;;5017636;28;20036;-78